sensor_id;sensor_type;location;lat;lon;timestamp;P1;durP1;ratioP1;P2;durP2;ratioP2
4889;SDS011;2459;42.268;23.112;2022-12-08T00:01:02;50.63;;;22.83;;
4889;SDS011;2459;42.268;23.112;2022-12-08T00:03:29;46.97;;;22.63;;
4889;SDS011;2459;42.268;23.112;2022-12-08T00:05:57;46.23;;;22.80;;
4889;SDS011;2459;42.268;23.112;2022-12-08T00:08:41;56.80;;;24.40;;
4889;SDS011;2459;42.268;23.112;2022-12-08T00:11:25;47.00;;;21.87;;
4889;SDS011;2459;42.268;23.112;2022-12-08T00:13:51;57.10;;;24.87;;
4889;SDS011;2459;42.268;23.112;2022-12-08T00:16:18;48.00;;;23.57;;
4889;SDS011;2459;42.268;23.112;2022-12-08T00:18:44;47.33;;;21.70;;
4889;SDS011;2459;42.268;23.112;2022-12-08T00:21:12;52.30;;;24.07;;
4889;SDS011;2459;42.268;23.112;2022-12-08T00:23:39;74.07;;;30.10;;
4889;SDS011;2459;42.268;23.112;2022-12-08T00:26:05;64.17;;;27.77;;
4889;SDS011;2459;42.268;23.112;2022-12-08T00:28:32;51.13;;;24.17;;
4889;SDS011;2459;42.268;23.112;2022-12-08T00:30:59;43.90;;;22.00;;
4889;SDS011;2459;42.268;23.112;2022-12-08T00:33:31;35.83;;;19.57;;
4889;SDS011;2459;42.268;23.112;2022-12-08T00:35:58;44.77;;;20.70;;
4889;SDS011;2459;42.268;23.112;2022-12-08T00:38:31;54.10;;;22.03;;
4889;SDS011;2459;42.268;23.112;2022-12-08T00:40:57;46.33;;;20.57;;
4889;SDS011;2459;42.268;23.112;2022-12-08T00:43:24;71.93;;;28.43;;
4889;SDS011;2459;42.268;23.112;2022-12-08T00:45:50;64.10;;;27.80;;
4889;SDS011;2459;42.268;23.112;2022-12-08T00:48:17;54.23;;;22.00;;
4889;SDS011;2459;42.268;23.112;2022-12-08T00:50:43;42.93;;;16.63;;
4889;SDS011;2459;42.268;23.112;2022-12-08T00:53:10;45.97;;;21.03;;
4889;SDS011;2459;42.268;23.112;2022-12-08T00:55:38;30.37;;;14.40;;
4889;SDS011;2459;42.268;23.112;2022-12-08T00:58:04;25.40;;;13.67;;
4889;SDS011;2459;42.268;23.112;2022-12-08T01:00:31;27.03;;;12.90;;
4889;SDS011;2459;42.268;23.112;2022-12-08T01:02:57;32.90;;;16.20;;
4889;SDS011;2459;42.268;23.112;2022-12-08T01:05:23;30.10;;;13.23;;
4889;SDS011;2459;42.268;23.112;2022-12-08T01:07:50;31.33;;;13.23;;
4889;SDS011;2459;42.268;23.112;2022-12-08T01:10:16;23.83;;;11.73;;
4889;SDS011;2459;42.268;23.112;2022-12-08T01:12:44;34.40;;;15.20;;
4889;SDS011;2459;42.268;23.112;2022-12-08T01:15:11;29.13;;;13.30;;
4889;SDS011;2459;42.268;23.112;2022-12-08T01:17:37;28.43;;;12.40;;
4889;SDS011;2459;42.268;23.112;2022-12-08T01:20:04;28.93;;;13.00;;
4889;SDS011;2459;42.268;23.112;2022-12-08T01:22:32;40.13;;;15.10;;
4889;SDS011;2459;42.268;23.112;2022-12-08T01:24:58;26.00;;;13.93;;
4889;SDS011;2459;42.268;23.112;2022-12-08T01:27:25;19.10;;;10.80;;
4889;SDS011;2459;42.268;23.112;2022-12-08T01:29:53;27.73;;;13.77;;
4889;SDS011;2459;42.268;23.112;2022-12-08T01:32:19;29.83;;;13.20;;
4889;SDS011;2459;42.268;23.112;2022-12-08T01:34:45;26.63;;;12.03;;
4889;SDS011;2459;42.268;23.112;2022-12-08T01:37:12;24.97;;;13.27;;
4889;SDS011;2459;42.268;23.112;2022-12-08T01:39:38;19.97;;;10.70;;
4889;SDS011;2459;42.268;23.112;2022-12-08T01:42:07;25.50;;;11.83;;
4889;SDS011;2459;42.268;23.112;2022-12-08T01:44:55;35.47;;;16.33;;
4889;SDS011;2459;42.268;23.112;2022-12-08T01:47:22;26.83;;;12.47;;
4889;SDS011;2459;42.268;23.112;2022-12-08T01:49:50;22.20;;;11.03;;
4889;SDS011;2459;42.268;23.112;2022-12-08T01:52:17;21.90;;;10.70;;
4889;SDS011;2459;42.268;23.112;2022-12-08T01:54:50;23.87;;;12.70;;
4889;SDS011;2459;42.268;23.112;2022-12-08T01:57:19;29.80;;;14.07;;
4889;SDS011;2459;42.268;23.112;2022-12-08T01:59:48;40.90;;;16.17;;
4889;SDS011;2459;42.268;23.112;2022-12-08T02:02:19;22.17;;;12.03;;
4889;SDS011;2459;42.268;23.112;2022-12-08T02:04:46;20.70;;;11.80;;
4889;SDS011;2459;42.268;23.112;2022-12-08T02:07:12;31.43;;;12.87;;
4889;SDS011;2459;42.268;23.112;2022-12-08T02:09:40;25.13;;;12.50;;
4889;SDS011;2459;42.268;23.112;2022-12-08T02:12:06;25.50;;;11.90;;
4889;SDS011;2459;42.268;23.112;2022-12-08T02:14:34;71.97;;;30.40;;
4889;SDS011;2459;42.268;23.112;2022-12-08T02:17:02;28.73;;;11.50;;
4889;SDS011;2459;42.268;23.112;2022-12-08T02:19:48;33.50;;;14.97;;
4889;SDS011;2459;42.268;23.112;2022-12-08T02:22:19;126.63;;;45.90;;
4889;SDS011;2459;42.268;23.112;2022-12-08T02:24:49;40.90;;;18.10;;
4889;SDS011;2459;42.268;23.112;2022-12-08T02:27:34;28.87;;;14.50;;
4889;SDS011;2459;42.268;23.112;2022-12-08T02:30:10;29.57;;;12.07;;
4889;SDS011;2459;42.268;23.112;2022-12-08T02:32:50;28.37;;;13.23;;
4889;SDS011;2459;42.268;23.112;2022-12-08T02:35:25;31.47;;;13.87;;
4889;SDS011;2459;42.268;23.112;2022-12-08T02:37:55;27.17;;;11.60;;
4889;SDS011;2459;42.268;23.112;2022-12-08T02:40:27;26.40;;;12.63;;
4889;SDS011;2459;42.268;23.112;2022-12-08T02:42:56;19.97;;;11.50;;
4889;SDS011;2459;42.268;23.112;2022-12-08T02:45:24;26.03;;;11.87;;
4889;SDS011;2459;42.268;23.112;2022-12-08T02:47:51;39.50;;;12.90;;
4889;SDS011;2459;42.268;23.112;2022-12-08T02:50:18;27.60;;;13.30;;
4889;SDS011;2459;42.268;23.112;2022-12-08T02:52:47;46.57;;;17.93;;
4889;SDS011;2459;42.268;23.112;2022-12-08T02:55:18;41.97;;;17.53;;
4889;SDS011;2459;42.268;23.112;2022-12-08T02:57:51;24.43;;;11.67;;
4889;SDS011;2459;42.268;23.112;2022-12-08T03:00:21;33.90;;;13.27;;
4889;SDS011;2459;42.268;23.112;2022-12-08T03:02:53;16.40;;;9.73;;
4889;SDS011;2459;42.268;23.112;2022-12-08T03:05:29;29.27;;;12.80;;
4889;SDS011;2459;42.268;23.112;2022-12-08T03:08:01;27.73;;;13.47;;
4889;SDS011;2459;42.268;23.112;2022-12-08T03:10:28;26.47;;;12.40;;
4889;SDS011;2459;42.268;23.112;2022-12-08T03:12:57;30.30;;;11.20;;
4889;SDS011;2459;42.268;23.112;2022-12-08T03:15:25;32.03;;;14.33;;
4889;SDS011;2459;42.268;23.112;2022-12-08T03:17:53;30.83;;;14.13;;
4889;SDS011;2459;42.268;23.112;2022-12-08T03:20:22;49.20;;;20.83;;
4889;SDS011;2459;42.268;23.112;2022-12-08T03:22:49;33.87;;;16.40;;
4889;SDS011;2459;42.268;23.112;2022-12-08T03:25:18;36.53;;;15.13;;
4889;SDS011;2459;42.268;23.112;2022-12-08T03:27:46;38.33;;;16.83;;
4889;SDS011;2459;42.268;23.112;2022-12-08T03:30:13;34.63;;;15.20;;
4889;SDS011;2459;42.268;23.112;2022-12-08T03:32:41;34.97;;;15.73;;
4889;SDS011;2459;42.268;23.112;2022-12-08T03:35:12;29.93;;;18.47;;
4889;SDS011;2459;42.268;23.112;2022-12-08T03:37:39;34.43;;;18.20;;
4889;SDS011;2459;42.268;23.112;2022-12-08T03:40:07;24.10;;;10.70;;
4889;SDS011;2459;42.268;23.112;2022-12-08T03:42:35;22.10;;;12.20;;
4889;SDS011;2459;42.268;23.112;2022-12-08T03:45:02;26.40;;;13.07;;
4889;SDS011;2459;42.268;23.112;2022-12-08T03:47:29;31.37;;;15.90;;
4889;SDS011;2459;42.268;23.112;2022-12-08T03:49:55;26.37;;;11.73;;
4889;SDS011;2459;42.268;23.112;2022-12-08T03:52:22;20.90;;;12.77;;
4889;SDS011;2459;42.268;23.112;2022-12-08T03:54:48;35.90;;;16.17;;
4889;SDS011;2459;42.268;23.112;2022-12-08T03:57:15;28.30;;;14.40;;
4889;SDS011;2459;42.268;23.112;2022-12-08T03:59:42;28.10;;;12.97;;
4889;SDS011;2459;42.268;23.112;2022-12-08T04:02:09;29.80;;;12.33;;
4889;SDS011;2459;42.268;23.112;2022-12-08T04:04:35;26.97;;;12.90;;
4889;SDS011;2459;42.268;23.112;2022-12-08T04:07:02;34.90;;;13.70;;
4889;SDS011;2459;42.268;23.112;2022-12-08T04:09:29;24.67;;;14.00;;
4889;SDS011;2459;42.268;23.112;2022-12-08T04:11:55;22.80;;;12.83;;
4889;SDS011;2459;42.268;23.112;2022-12-08T04:14:21;31.30;;;13.60;;
4889;SDS011;2459;42.268;23.112;2022-12-08T04:16:49;29.50;;;14.30;;
4889;SDS011;2459;42.268;23.112;2022-12-08T04:19:16;26.73;;;13.50;;
4889;SDS011;2459;42.268;23.112;2022-12-08T04:21:42;30.00;;;15.37;;
4889;SDS011;2459;42.268;23.112;2022-12-08T04:24:09;29.40;;;14.13;;
4889;SDS011;2459;42.268;23.112;2022-12-08T04:26:35;70.63;;;30.83;;
4889;SDS011;2459;42.268;23.112;2022-12-08T04:29:02;28.53;;;14.07;;
4889;SDS011;2459;42.268;23.112;2022-12-08T04:31:28;35.13;;;16.33;;
4889;SDS011;2459;42.268;23.112;2022-12-08T04:33:56;29.03;;;15.50;;
4889;SDS011;2459;42.268;23.112;2022-12-08T04:36:22;30.33;;;13.20;;
4889;SDS011;2459;42.268;23.112;2022-12-08T04:38:49;22.10;;;12.40;;
4889;SDS011;2459;42.268;23.112;2022-12-08T04:41:15;24.50;;;13.73;;
4889;SDS011;2459;42.268;23.112;2022-12-08T04:43:42;31.23;;;16.23;;
4889;SDS011;2459;42.268;23.112;2022-12-08T04:46:09;79.37;;;27.50;;
4889;SDS011;2459;42.268;23.112;2022-12-08T04:48:36;30.37;;;14.37;;
4889;SDS011;2459;42.268;23.112;2022-12-08T04:51:04;51.77;;;16.50;;
4889;SDS011;2459;42.268;23.112;2022-12-08T04:53:30;28.73;;;14.03;;
4889;SDS011;2459;42.268;23.112;2022-12-08T04:55:57;35.57;;;13.07;;
4889;SDS011;2459;42.268;23.112;2022-12-08T04:58:23;26.67;;;14.60;;
4889;SDS011;2459;42.268;23.112;2022-12-08T05:00:50;35.43;;;17.30;;
4889;SDS011;2459;42.268;23.112;2022-12-08T05:03:16;25.23;;;13.53;;
4889;SDS011;2459;42.268;23.112;2022-12-08T05:05:43;40.63;;;16.20;;
4889;SDS011;2459;42.268;23.112;2022-12-08T05:08:12;28.63;;;16.50;;
4889;SDS011;2459;42.268;23.112;2022-12-08T05:10:38;40.60;;;19.03;;
4889;SDS011;2459;42.268;23.112;2022-12-08T05:13:04;25.20;;;14.60;;
4889;SDS011;2459;42.268;23.112;2022-12-08T05:15:31;39.90;;;18.67;;
4889;SDS011;2459;42.268;23.112;2022-12-08T05:17:57;23.33;;;11.47;;
4889;SDS011;2459;42.268;23.112;2022-12-08T05:20:24;32.40;;;16.60;;
4889;SDS011;2459;42.268;23.112;2022-12-08T05:22:50;27.50;;;13.97;;
4889;SDS011;2459;42.268;23.112;2022-12-08T05:25:18;30.67;;;16.63;;
4889;SDS011;2459;42.268;23.112;2022-12-08T05:27:45;31.30;;;18.20;;
4889;SDS011;2459;42.268;23.112;2022-12-08T05:30:11;31.13;;;16.90;;
4889;SDS011;2459;42.268;23.112;2022-12-08T05:32:38;32.27;;;16.57;;
4889;SDS011;2459;42.268;23.112;2022-12-08T05:35:05;40.10;;;18.90;;
4889;SDS011;2459;42.268;23.112;2022-12-08T05:37:31;44.80;;;19.33;;
4889;SDS011;2459;42.268;23.112;2022-12-08T05:39:58;39.07;;;16.63;;
4889;SDS011;2459;42.268;23.112;2022-12-08T05:42:26;40.07;;;18.47;;
4889;SDS011;2459;42.268;23.112;2022-12-08T05:44:52;33.80;;;18.80;;
4889;SDS011;2459;42.268;23.112;2022-12-08T05:47:19;41.17;;;19.50;;
4889;SDS011;2459;42.268;23.112;2022-12-08T05:49:45;36.63;;;18.80;;
4889;SDS011;2459;42.268;23.112;2022-12-08T05:52:12;37.47;;;18.77;;
4889;SDS011;2459;42.268;23.112;2022-12-08T05:54:40;30.00;;;14.70;;
4889;SDS011;2459;42.268;23.112;2022-12-08T05:57:07;37.20;;;17.20;;
4889;SDS011;2459;42.268;23.112;2022-12-08T05:59:35;68.63;;;30.50;;
4889;SDS011;2459;42.268;23.112;2022-12-08T06:02:02;39.10;;;17.13;;
4889;SDS011;2459;42.268;23.112;2022-12-08T06:04:28;47.77;;;20.63;;
4889;SDS011;2459;42.268;23.112;2022-12-08T06:06:55;36.50;;;17.30;;
4889;SDS011;2459;42.268;23.112;2022-12-08T06:09:21;28.10;;;15.87;;
4889;SDS011;2459;42.268;23.112;2022-12-08T06:11:47;40.30;;;18.20;;
4889;SDS011;2459;42.268;23.112;2022-12-08T06:14:14;43.40;;;16.70;;
4889;SDS011;2459;42.268;23.112;2022-12-08T06:16:42;78.30;;;27.87;;
4889;SDS011;2459;42.268;23.112;2022-12-08T06:19:08;57.23;;;18.90;;
4889;SDS011;2459;42.268;23.112;2022-12-08T06:21:35;37.53;;;18.47;;
4889;SDS011;2459;42.268;23.112;2022-12-08T06:24:01;58.53;;;25.60;;
4889;SDS011;2459;42.268;23.112;2022-12-08T06:26:28;35.50;;;20.53;;
4889;SDS011;2459;42.268;23.112;2022-12-08T06:28:54;48.70;;;20.90;;
4889;SDS011;2459;42.268;23.112;2022-12-08T06:31:21;45.20;;;20.20;;
4889;SDS011;2459;42.268;23.112;2022-12-08T06:33:50;47.30;;;22.47;;
4889;SDS011;2459;42.268;23.112;2022-12-08T06:36:17;47.03;;;21.67;;
4889;SDS011;2459;42.268;23.112;2022-12-08T06:38:44;46.10;;;24.10;;
4889;SDS011;2459;42.268;23.112;2022-12-08T06:41:10;38.23;;;20.03;;
4889;SDS011;2459;42.268;23.112;2022-12-08T06:43:37;40.53;;;19.90;;
4889;SDS011;2459;42.268;23.112;2022-12-08T06:46:05;38.40;;;19.60;;
4889;SDS011;2459;42.268;23.112;2022-12-08T06:48:33;39.93;;;16.90;;
4889;SDS011;2459;42.268;23.112;2022-12-08T06:51:05;34.80;;;15.43;;
4889;SDS011;2459;42.268;23.112;2022-12-08T06:53:32;36.03;;;17.70;;
4889;SDS011;2459;42.268;23.112;2022-12-08T06:55:59;32.67;;;17.67;;
4889;SDS011;2459;42.268;23.112;2022-12-08T06:58:25;34.20;;;17.63;;
4889;SDS011;2459;42.268;23.112;2022-12-08T07:00:52;51.57;;;20.40;;
4889;SDS011;2459;42.268;23.112;2022-12-08T07:03:22;54.13;;;22.97;;
4889;SDS011;2459;42.268;23.112;2022-12-08T07:05:49;32.33;;;17.67;;
4889;SDS011;2459;42.268;23.112;2022-12-08T07:08:18;44.00;;;20.60;;
4889;SDS011;2459;42.268;23.112;2022-12-08T07:10:45;47.40;;;21.37;;
4889;SDS011;2459;42.268;23.112;2022-12-08T07:13:11;43.50;;;20.53;;
4889;SDS011;2459;42.268;23.112;2022-12-08T07:15:38;42.70;;;22.63;;
4889;SDS011;2459;42.268;23.112;2022-12-08T07:18:04;45.37;;;21.20;;
4889;SDS011;2459;42.268;23.112;2022-12-08T07:20:31;38.30;;;21.23;;
4889;SDS011;2459;42.268;23.112;2022-12-08T07:22:57;44.10;;;22.83;;
4889;SDS011;2459;42.268;23.112;2022-12-08T07:25:25;57.40;;;24.03;;
4889;SDS011;2459;42.268;23.112;2022-12-08T07:27:52;49.20;;;21.80;;
4889;SDS011;2459;42.268;23.112;2022-12-08T07:30:18;57.10;;;24.00;;
4889;SDS011;2459;42.268;23.112;2022-12-08T07:32:45;42.77;;;20.10;;
4889;SDS011;2459;42.268;23.112;2022-12-08T07:35:11;44.80;;;21.03;;
4889;SDS011;2459;42.268;23.112;2022-12-08T07:37:38;43.60;;;21.17;;
4889;SDS011;2459;42.268;23.112;2022-12-08T07:40:05;50.60;;;22.30;;
4889;SDS011;2459;42.268;23.112;2022-12-08T07:42:35;45.17;;;22.60;;
4889;SDS011;2459;42.268;23.112;2022-12-08T07:45:05;50.63;;;21.77;;
4889;SDS011;2459;42.268;23.112;2022-12-08T07:47:32;73.23;;;25.47;;
4889;SDS011;2459;42.268;23.112;2022-12-08T07:49:59;45.03;;;20.03;;
4889;SDS011;2459;42.268;23.112;2022-12-08T07:52:25;43.70;;;18.10;;
4889;SDS011;2459;42.268;23.112;2022-12-08T07:54:52;57.63;;;19.70;;
4889;SDS011;2459;42.268;23.112;2022-12-08T07:57:18;54.17;;;21.07;;
4889;SDS011;2459;42.268;23.112;2022-12-08T07:59:46;73.20;;;24.57;;
4889;SDS011;2459;42.268;23.112;2022-12-08T08:02:15;31.20;;;16.97;;
4889;SDS011;2459;42.268;23.112;2022-12-08T08:04:41;39.10;;;20.50;;
4889;SDS011;2459;42.268;23.112;2022-12-08T08:07:08;28.80;;;16.63;;
4889;SDS011;2459;42.268;23.112;2022-12-08T08:09:34;25.37;;;16.07;;
4889;SDS011;2459;42.268;23.112;2022-12-08T08:12:01;31.07;;;14.53;;
4889;SDS011;2459;42.268;23.112;2022-12-08T08:14:29;31.60;;;14.73;;
4889;SDS011;2459;42.268;23.112;2022-12-08T08:16:57;46.37;;;17.10;;
4889;SDS011;2459;42.268;23.112;2022-12-08T08:19:23;35.17;;;14.53;;
4889;SDS011;2459;42.268;23.112;2022-12-08T08:21:50;24.03;;;13.07;;
4889;SDS011;2459;42.268;23.112;2022-12-08T08:24:16;23.77;;;13.80;;
4889;SDS011;2459;42.268;23.112;2022-12-08T08:26:43;21.43;;;12.33;;
4889;SDS011;2459;42.268;23.112;2022-12-08T08:29:09;27.90;;;14.77;;
4889;SDS011;2459;42.268;23.112;2022-12-08T08:31:36;22.90;;;12.03;;
4889;SDS011;2459;42.268;23.112;2022-12-08T08:34:04;31.13;;;11.33;;
4889;SDS011;2459;42.268;23.112;2022-12-08T08:36:30;24.93;;;12.20;;
4889;SDS011;2459;42.268;23.112;2022-12-08T08:38:57;32.03;;;14.20;;
4889;SDS011;2459;42.268;23.112;2022-12-08T08:41:23;19.97;;;11.83;;
4889;SDS011;2459;42.268;23.112;2022-12-08T08:43:50;16.00;;;10.17;;
4889;SDS011;2459;42.268;23.112;2022-12-08T08:46:16;17.37;;;12.00;;
4889;SDS011;2459;42.268;23.112;2022-12-08T08:48:43;22.93;;;11.23;;
4889;SDS011;2459;42.268;23.112;2022-12-08T08:51:11;38.00;;;12.33;;
4889;SDS011;2459;42.268;23.112;2022-12-08T08:53:38;30.37;;;13.80;;
4889;SDS011;2459;42.268;23.112;2022-12-08T08:56:07;20.63;;;11.33;;
4889;SDS011;2459;42.268;23.112;2022-12-08T08:58:33;29.10;;;13.80;;
4889;SDS011;2459;42.268;23.112;2022-12-08T09:01:00;28.03;;;14.43;;
4889;SDS011;2459;42.268;23.112;2022-12-08T09:03:26;31.20;;;14.20;;
4889;SDS011;2459;42.268;23.112;2022-12-08T09:05:53;21.77;;;12.73;;
4889;SDS011;2459;42.268;23.112;2022-12-08T09:08:21;26.53;;;12.80;;
4889;SDS011;2459;42.268;23.112;2022-12-08T09:10:48;47.70;;;20.70;;
4889;SDS011;2459;42.268;23.112;2022-12-08T09:13:14;48.50;;;17.77;;
4889;SDS011;2459;42.268;23.112;2022-12-08T09:15:41;53.00;;;21.77;;
4889;SDS011;2459;42.268;23.112;2022-12-08T09:18:07;54.80;;;21.30;;
4889;SDS011;2459;42.268;23.112;2022-12-08T09:20:34;81.07;;;32.63;;
4889;SDS011;2459;42.268;23.112;2022-12-08T09:23:02;32.43;;;16.50;;
4889;SDS011;2459;42.268;23.112;2022-12-08T09:25:34;26.70;;;14.60;;
4889;SDS011;2459;42.268;23.112;2022-12-08T09:28:00;38.03;;;14.30;;
4889;SDS011;2459;42.268;23.112;2022-12-08T09:30:26;35.60;;;16.30;;
4889;SDS011;2459;42.268;23.112;2022-12-08T09:32:53;26.73;;;11.53;;
4889;SDS011;2459;42.268;23.112;2022-12-08T09:35:19;26.50;;;14.97;;
4889;SDS011;2459;42.268;23.112;2022-12-08T09:37:46;25.27;;;15.47;;
4889;SDS011;2459;42.268;23.112;2022-12-08T09:40:14;16.27;;;12.03;;
4889;SDS011;2459;42.268;23.112;2022-12-08T09:42:45;28.47;;;12.30;;
4889;SDS011;2459;42.268;23.112;2022-12-08T09:45:13;23.43;;;10.67;;
4889;SDS011;2459;42.268;23.112;2022-12-08T09:47:41;19.30;;;9.90;;
4889;SDS011;2459;42.268;23.112;2022-12-08T09:50:11;29.47;;;9.17;;
4889;SDS011;2459;42.268;23.112;2022-12-08T09:52:40;16.10;;;9.00;;
4889;SDS011;2459;42.268;23.112;2022-12-08T09:55:11;18.50;;;9.20;;
4889;SDS011;2459;42.268;23.112;2022-12-08T09:57:40;25.07;;;10.13;;
4889;SDS011;2459;42.268;23.112;2022-12-08T10:00:10;14.70;;;9.10;;
4889;SDS011;2459;42.268;23.112;2022-12-08T10:02:37;11.10;;;7.60;;
4889;SDS011;2459;42.268;23.112;2022-12-08T10:05:04;13.10;;;5.47;;
4889;SDS011;2459;42.268;23.112;2022-12-08T10:07:33;18.30;;;9.50;;
4889;SDS011;2459;42.268;23.112;2022-12-08T10:10:02;17.43;;;7.43;;
4889;SDS011;2459;42.268;23.112;2022-12-08T10:12:30;11.77;;;4.03;;
4889;SDS011;2459;42.268;23.112;2022-12-08T10:15:01;14.23;;;6.13;;
4889;SDS011;2459;42.268;23.112;2022-12-08T10:17:36;30.30;;;11.60;;
4889;SDS011;2459;42.268;23.112;2022-12-08T10:20:08;9.83;;;5.53;;
4889;SDS011;2459;42.268;23.112;2022-12-08T10:22:36;12.57;;;4.80;;
4889;SDS011;2459;42.268;23.112;2022-12-08T10:25:04;16.67;;;8.80;;
4889;SDS011;2459;42.268;23.112;2022-12-08T10:27:32;15.13;;;7.57;;
4889;SDS011;2459;42.268;23.112;2022-12-08T10:29:59;15.70;;;8.43;;
4889;SDS011;2459;42.268;23.112;2022-12-08T10:32:28;14.80;;;6.73;;
4889;SDS011;2459;42.268;23.112;2022-12-08T10:35:01;14.10;;;5.50;;
4889;SDS011;2459;42.268;23.112;2022-12-08T10:37:28;18.00;;;8.40;;
4889;SDS011;2459;42.268;23.112;2022-12-08T10:39:58;17.10;;;6.20;;
4889;SDS011;2459;42.268;23.112;2022-12-08T10:42:25;15.17;;;6.37;;
4889;SDS011;2459;42.268;23.112;2022-12-08T10:44:58;9.53;;;4.93;;
4889;SDS011;2459;42.268;23.112;2022-12-08T10:47:26;11.17;;;4.20;;
4889;SDS011;2459;42.268;23.112;2022-12-08T10:50:06;9.20;;;4.47;;
4889;SDS011;2459;42.268;23.112;2022-12-08T10:52:36;10.70;;;4.67;;
4889;SDS011;2459;42.268;23.112;2022-12-08T10:55:03;7.37;;;4.43;;
4889;SDS011;2459;42.268;23.112;2022-12-08T10:57:29;13.43;;;5.60;;
4889;SDS011;2459;42.268;23.112;2022-12-08T10:59:56;15.43;;;5.47;;
4889;SDS011;2459;42.268;23.112;2022-12-08T11:02:22;11.63;;;4.83;;
4889;SDS011;2459;42.268;23.112;2022-12-08T11:04:55;8.83;;;4.60;;
4889;SDS011;2459;42.268;23.112;2022-12-08T11:07:26;14.60;;;7.10;;
4889;SDS011;2459;42.268;23.112;2022-12-08T11:09:53;25.63;;;9.43;;
4889;SDS011;2459;42.268;23.112;2022-12-08T11:12:22;16.87;;;7.80;;
4889;SDS011;2459;42.268;23.112;2022-12-08T11:14:53;9.80;;;4.47;;
4889;SDS011;2459;42.268;23.112;2022-12-08T11:17:24;15.23;;;5.67;;
4889;SDS011;2459;42.268;23.112;2022-12-08T11:19:54;30.30;;;8.30;;
4889;SDS011;2459;42.268;23.112;2022-12-08T11:22:22;12.90;;;5.80;;
4889;SDS011;2459;42.268;23.112;2022-12-08T11:24:57;14.83;;;5.13;;
4889;SDS011;2459;42.268;23.112;2022-12-08T11:27:24;24.90;;;8.10;;
4889;SDS011;2459;42.268;23.112;2022-12-08T11:29:52;16.43;;;7.40;;
4889;SDS011;2459;42.268;23.112;2022-12-08T11:32:18;18.40;;;6.00;;
4889;SDS011;2459;42.268;23.112;2022-12-08T11:34:45;14.63;;;6.70;;
4889;SDS011;2459;42.268;23.112;2022-12-08T11:37:14;20.07;;;9.10;;
4889;SDS011;2459;42.268;23.112;2022-12-08T11:39:43;10.43;;;5.27;;
4889;SDS011;2459;42.268;23.112;2022-12-08T11:42:12;13.20;;;6.43;;
4889;SDS011;2459;42.268;23.112;2022-12-08T11:44:41;14.67;;;5.70;;
4889;SDS011;2459;42.268;23.112;2022-12-08T11:47:12;17.53;;;5.40;;
4889;SDS011;2459;42.268;23.112;2022-12-08T11:49:41;16.00;;;7.93;;
4889;SDS011;2459;42.268;23.112;2022-12-08T11:52:10;15.37;;;6.23;;
4889;SDS011;2459;42.268;23.112;2022-12-08T11:54:44;8.30;;;4.63;;
4889;SDS011;2459;42.268;23.112;2022-12-08T11:57:13;18.63;;;6.40;;
4889;SDS011;2459;42.268;23.112;2022-12-08T11:59:44;11.83;;;5.70;;
4889;SDS011;2459;42.268;23.112;2022-12-08T12:02:14;15.00;;;5.63;;
4889;SDS011;2459;42.268;23.112;2022-12-08T12:04:42;18.57;;;6.10;;
4889;SDS011;2459;42.268;23.112;2022-12-08T12:07:30;17.70;;;6.97;;
4889;SDS011;2459;42.268;23.112;2022-12-08T12:10:02;14.40;;;7.43;;
4889;SDS011;2459;42.268;23.112;2022-12-08T12:12:35;23.23;;;8.17;;
4889;SDS011;2459;42.268;23.112;2022-12-08T12:15:25;26.63;;;7.73;;
4889;SDS011;2459;42.268;23.112;2022-12-08T12:17:55;18.10;;;7.53;;
4889;SDS011;2459;42.268;23.112;2022-12-08T12:20:24;22.53;;;6.27;;
4889;SDS011;2459;42.268;23.112;2022-12-08T12:22:54;16.17;;;7.07;;
4889;SDS011;2459;42.268;23.112;2022-12-08T12:25:22;11.23;;;6.40;;
4889;SDS011;2459;42.268;23.112;2022-12-08T12:27:51;12.27;;;6.60;;
4889;SDS011;2459;42.268;23.112;2022-12-08T12:30:22;10.30;;;6.13;;
4889;SDS011;2459;42.268;23.112;2022-12-08T12:32:50;15.60;;;7.23;;
4889;SDS011;2459;42.268;23.112;2022-12-08T12:35:19;19.20;;;7.33;;
4889;SDS011;2459;42.268;23.112;2022-12-08T12:37:46;15.37;;;7.67;;
4889;SDS011;2459;42.268;23.112;2022-12-08T12:40:15;21.00;;;6.27;;
4889;SDS011;2459;42.268;23.112;2022-12-08T12:42:43;18.17;;;6.27;;
4889;SDS011;2459;42.268;23.112;2022-12-08T12:45:24;15.50;;;6.40;;
4889;SDS011;2459;42.268;23.112;2022-12-08T12:47:51;17.70;;;6.50;;
4889;SDS011;2459;42.268;23.112;2022-12-08T12:53:01;18.07;;;5.80;;
4889;SDS011;2459;42.268;23.112;2022-12-08T12:58:18;18.57;;;6.27;;
4889;SDS011;2459;42.268;23.112;2022-12-08T13:00:46;16.67;;;8.30;;
4889;SDS011;2459;42.268;23.112;2022-12-08T13:03:13;23.00;;;7.70;;
4889;SDS011;2459;42.268;23.112;2022-12-08T13:05:44;13.30;;;6.70;;
4889;SDS011;2459;42.268;23.112;2022-12-08T13:08:15;22.77;;;7.67;;
4889;SDS011;2459;42.268;23.112;2022-12-08T13:10:46;21.87;;;8.50;;
4889;SDS011;2459;42.268;23.112;2022-12-08T13:13:15;18.03;;;9.40;;
4889;SDS011;2459;42.268;23.112;2022-12-08T13:15:48;38.03;;;9.37;;
4889;SDS011;2459;42.268;23.112;2022-12-08T13:18:17;37.40;;;12.00;;
4889;SDS011;2459;42.268;23.112;2022-12-08T13:20:45;15.57;;;9.27;;
4889;SDS011;2459;42.268;23.112;2022-12-08T13:26:09;41.30;;;15.27;;
4889;SDS011;2459;42.268;23.112;2022-12-08T13:31:35;32.97;;;14.93;;
4889;SDS011;2459;42.268;23.112;2022-12-08T13:34:03;25.10;;;12.50;;
4889;SDS011;2459;42.268;23.112;2022-12-08T13:36:31;22.70;;;9.00;;
4889;SDS011;2459;42.268;23.112;2022-12-08T13:38:58;20.97;;;9.10;;
4889;SDS011;2459;42.268;23.112;2022-12-08T13:41:27;23.43;;;10.40;;
4889;SDS011;2459;42.268;23.112;2022-12-08T13:43:57;17.53;;;7.90;;
4889;SDS011;2459;42.268;23.112;2022-12-08T13:46:28;28.77;;;9.10;;
4889;SDS011;2459;42.268;23.112;2022-12-08T13:48:58;10.43;;;6.50;;
4889;SDS011;2459;42.268;23.112;2022-12-08T13:51:26;19.13;;;9.70;;
4889;SDS011;2459;42.268;23.112;2022-12-08T13:53:57;28.67;;;9.10;;
4889;SDS011;2459;42.268;23.112;2022-12-08T13:56:24;14.73;;;8.37;;
4889;SDS011;2459;42.268;23.112;2022-12-08T13:58:52;20.23;;;7.70;;
4889;SDS011;2459;42.268;23.112;2022-12-08T14:01:31;23.97;;;10.07;;
4889;SDS011;2459;42.268;23.112;2022-12-08T14:04:00;16.70;;;7.70;;
4889;SDS011;2459;42.268;23.112;2022-12-08T14:06:27;13.90;;;7.47;;
4889;SDS011;2459;42.268;23.112;2022-12-08T14:08:55;22.33;;;9.03;;
4889;SDS011;2459;42.268;23.112;2022-12-08T14:11:27;12.23;;;6.50;;
4889;SDS011;2459;42.268;23.112;2022-12-08T14:14:03;8.63;;;6.00;;
4889;SDS011;2459;42.268;23.112;2022-12-08T14:16:32;18.73;;;8.53;;
4889;SDS011;2459;42.268;23.112;2022-12-08T14:19:10;28.30;;;9.20;;
4889;SDS011;2459;42.268;23.112;2022-12-08T14:21:40;21.27;;;10.13;;
4889;SDS011;2459;42.268;23.112;2022-12-08T14:24:07;41.03;;;9.47;;
4889;SDS011;2459;42.268;23.112;2022-12-08T14:26:34;31.23;;;10.03;;
4889;SDS011;2459;42.268;23.112;2022-12-08T14:29:00;23.77;;;10.07;;
4889;SDS011;2459;42.268;23.112;2022-12-08T14:31:27;30.60;;;9.97;;
4889;SDS011;2459;42.268;23.112;2022-12-08T14:33:53;23.00;;;9.60;;
4889;SDS011;2459;42.268;23.112;2022-12-08T14:36:21;21.93;;;8.50;;
4889;SDS011;2459;42.268;23.112;2022-12-08T14:38:48;35.17;;;9.77;;
4889;SDS011;2459;42.268;23.112;2022-12-08T14:41:16;21.30;;;10.40;;
4889;SDS011;2459;42.268;23.112;2022-12-08T14:43:56;24.93;;;11.03;;
4889;SDS011;2459;42.268;23.112;2022-12-08T14:46:23;22.90;;;10.13;;
4889;SDS011;2459;42.268;23.112;2022-12-08T14:48:49;19.90;;;8.90;;
4889;SDS011;2459;42.268;23.112;2022-12-08T14:51:19;16.57;;;9.70;;
4889;SDS011;2459;42.268;23.112;2022-12-08T14:56:51;20.50;;;12.73;;
4889;SDS011;2459;42.268;23.112;2022-12-08T14:59:19;22.63;;;10.70;;